createdAt,value
2023-02-08T00:01:00.535Z,14.43
2023-02-08T00:03:28.992Z,15.80
2023-02-08T00:05:56.297Z,12.70
2023-02-08T00:08:23.676Z,13.73
2023-02-08T00:10:51.111Z,15.37
2023-02-08T00:13:18.750Z,15.70
2023-02-08T00:15:46.701Z,15.77
2023-02-08T00:18:14.752Z,13.70
2023-02-08T00:20:43.441Z,14.23
2023-02-08T00:23:12.051Z,17.87
2023-02-08T00:25:40.514Z,15.20
2023-02-08T00:28:11.336Z,16.00
2023-02-08T00:30:39.374Z,17.50
2023-02-08T00:33:08.792Z,16.77
2023-02-08T00:35:36.311Z,15.63
2023-02-08T00:38:03.939Z,14.17
2023-02-08T00:40:31.190Z,14.50
2023-02-08T00:42:58.525Z,14.87
2023-02-08T00:45:25.889Z,15.43
2023-02-08T00:47:53.555Z,14.07
2023-02-08T00:50:21.615Z,16.70
2023-02-08T00:52:48.906Z,15.87
2023-02-08T00:55:16.582Z,14.00
2023-02-08T00:57:43.900Z,13.40
2023-02-08T01:00:11.963Z,13.40
2023-02-08T01:02:39.548Z,14.03
2023-02-08T01:05:07.056Z,15.23
2023-02-08T01:07:37.070Z,16.70
2023-02-08T01:10:12.468Z,13.07
2023-02-08T01:12:41.329Z,13.23
2023-02-08T01:15:09.128Z,14.77
2023-02-08T01:17:36.808Z,15.00
2023-02-08T01:20:04.443Z,17.67
2023-02-08T01:22:31.759Z,14.00
2023-02-08T01:25:01.078Z,13.40
2023-02-08T01:27:28.776Z,13.77
2023-02-08T01:29:56.087Z,15.43
2023-02-08T01:32:23.527Z,13.37
2023-02-08T01:34:50.826Z,14.50
2023-02-08T01:37:18.178Z,13.13
2023-02-08T01:39:47.873Z,14.60
2023-02-08T01:42:17.063Z,14.03
2023-02-08T01:45:12.089Z,15.50
2023-02-08T01:47:39.414Z,17.50
2023-02-08T01:50:07.321Z,14.57
2023-02-08T01:52:34.821Z,13.43
2023-02-08T01:55:23.920Z,15.07
2023-02-08T01:57:55.338Z,12.27
2023-02-08T02:00:27.219Z,12.93
2023-02-08T02:02:56.739Z,12.23
2023-02-08T02:05:28.420Z,14.77
2023-02-08T02:07:58.525Z,14.70
2023-02-08T02:10:32.174Z,14.03
2023-02-08T02:13:09.273Z,21.00
2023-02-08T02:15:37.061Z,16.13
2023-02-08T02:18:06.883Z,15.13
2023-02-08T02:20:57.684Z,12.83
2023-02-08T02:23:28.264Z,13.63
2023-02-08T02:26:27.362Z,17.30
2023-02-08T02:29:11.930Z,14.00
2023-02-08T02:31:51.831Z,16.20
2023-02-08T02:34:42.380Z,13.83
2023-02-08T02:37:23.083Z,15.87
2023-02-08T02:40:10.147Z,18.67
2023-02-08T02:43:25.231Z,17.23
2023-02-08T02:46:26.980Z,17.27
2023-02-08T02:49:12.426Z,15.20
2023-02-08T02:51:57.729Z,14.70
2023-02-08T02:54:32.098Z,14.70
2023-02-08T02:57:06.035Z,15.00
2023-02-08T02:59:38.750Z,14.50
2023-02-08T03:02:06.467Z,15.17
2023-02-08T03:04:33.760Z,16.53
2023-02-08T03:07:13.141Z,14.20
2023-02-08T03:10:15.109Z,15.47
2023-02-08T03:13:04.453Z,16.77
2023-02-08T03:15:41.474Z,13.77
2023-02-08T03:18:52.646Z,18.73
2023-02-08T03:22:04.892Z,14.73
2023-02-08T03:24:49.011Z,16.70
2023-02-08T03:27:34.006Z,18.33
2023-02-08T03:30:11.688Z,17.77
2023-02-08T03:32:46.326Z,14.67
2023-02-08T03:35:25.678Z,15.67
2023-02-08T03:38:04.835Z,14.90
2023-02-08T03:40:42.973Z,15.93
2023-02-08T03:43:21.682Z,16.70
2023-02-08T03:46:01.877Z,15.60
2023-02-08T03:48:31.438Z,16.73
2023-02-08T03:51:01.576Z,15.50
2023-02-08T03:53:32.514Z,18.37
2023-02-08T03:56:04.430Z,18.87
2023-02-08T03:58:38.515Z,22.23
2023-02-08T04:01:30.818Z,20.23
2023-02-08T04:03:59.834Z,20.53
2023-02-08T04:06:27.702Z,18.50
2023-02-08T04:08:56.017Z,20.17
2023-02-08T04:11:23.272Z,20.60
2023-02-08T04:13:50.513Z,21.37
2023-02-08T04:16:17.731Z,18.50
2023-02-08T04:18:44.959Z,19.13
2023-02-08T04:21:12.637Z,19.83
2023-02-08T04:23:39.884Z,17.87
2023-02-08T04:26:08.674Z,18.13
2023-02-08T04:28:36.038Z,16.27
2023-02-08T04:31:03.575Z,16.73
2023-02-08T04:33:31.227Z,18.20
2023-02-08T04:35:58.471Z,21.77
2023-02-08T04:38:25.754Z,17.43
2023-02-08T04:40:53.102Z,19.80
2023-02-08T04:43:20.338Z,17.43
2023-02-08T04:45:51.184Z,16.77
2023-02-08T04:48:20.474Z,17.87
2023-02-08T04:50:47.742Z,16.57
2023-02-08T04:53:15.198Z,16.60
2023-02-08T04:55:42.541Z,15.87
2023-02-08T04:58:09.786Z,17.93
2023-02-08T05:00:37.160Z,18.40
2023-02-08T05:03:04.631Z,18.13
2023-02-08T05:05:32.748Z,15.80
2023-02-08T05:07:59.979Z,20.57
2023-02-08T05:10:27.292Z,18.47
2023-02-08T05:12:54.574Z,16.60
2023-02-08T05:15:21.944Z,16.63
2023-02-08T05:17:49.291Z,15.40
2023-02-08T05:20:16.680Z,18.90
2023-02-08T05:22:44.975Z,16.17
2023-02-08T05:25:12.301Z,19.07
2023-02-08T05:27:39.635Z,16.47
2023-02-08T05:30:07.461Z,18.33
2023-02-08T05:32:34.699Z,18.10
2023-02-08T05:35:01.927Z,15.27
2023-02-08T05:37:29.201Z,18.40
2023-02-08T05:39:56.441Z,15.17
2023-02-08T05:42:23.790Z,16.47
2023-02-08T05:44:52.370Z,16.70
2023-02-08T05:47:20.008Z,18.77
2023-02-08T05:49:47.310Z,17.63
2023-02-08T05:52:14.641Z,17.97
2023-02-08T05:54:41.880Z,18.90
2023-02-08T05:57:09.296Z,22.77
2023-02-08T05:59:36.551Z,15.43
2023-02-08T06:02:03.800Z,16.23
2023-02-08T06:04:31.082Z,15.93
2023-02-08T06:06:58.353Z,17.53
2023-02-08T06:09:25.697Z,19.10
2023-02-08T06:11:52.926Z,18.30
2023-02-08T06:14:20.260Z,17.27
2023-02-08T06:16:48.030Z,15.33
2023-02-08T06:19:15.336Z,18.00
2023-02-08T06:21:43.615Z,17.03
2023-02-08T06:24:11.456Z,15.57
2023-02-08T06:26:38.798Z,21.13
2023-02-08T06:29:06.061Z,16.80
2023-02-08T06:31:33.372Z,17.03
2023-02-08T06:34:00.654Z,18.00
2023-02-08T06:36:28.315Z,17.03
2023-02-08T06:38:56.641Z,14.63
2023-02-08T06:41:24.020Z,17.40
2023-02-08T06:43:51.359Z,17.23
2023-02-08T06:46:18.787Z,15.63
2023-02-08T06:48:46.043Z,14.90
2023-02-08T06:51:16.916Z,15.20
2023-02-08T06:53:51.484Z,15.97
2023-02-08T06:56:19.244Z,23.07
2023-02-08T06:58:46.936Z,16.20
2023-02-08T07:01:14.861Z,16.23
2023-02-08T07:03:42.583Z,16.70
2023-02-08T07:06:14.979Z,16.63
2023-02-08T07:08:44.521Z,17.50
2023-02-08T07:11:15.332Z,14.47
2023-02-08T07:13:50.023Z,17.20
2023-02-08T07:16:19.682Z,17.77
2023-02-08T07:18:47.118Z,17.33
2023-02-08T07:21:14.682Z,13.47
2023-02-08T07:23:43.542Z,15.50
2023-02-08T07:26:14.532Z,13.83
2023-02-08T07:28:42.471Z,15.20
2023-02-08T07:31:15.524Z,14.37
2023-02-08T07:33:43.318Z,14.53
2023-02-08T07:36:11.774Z,14.87
2023-02-08T07:38:39.642Z,14.70
2023-02-08T07:41:09.610Z,13.97
2023-02-08T07:43:38.449Z,15.53
2023-02-08T07:46:18.469Z,19.27
2023-02-08T07:48:46.118Z,18.20
2023-02-08T07:51:13.981Z,13.87
2023-02-08T07:53:42.661Z,15.37
2023-02-08T07:56:12.308Z,18.00
2023-02-08T07:58:40.838Z,13.77
2023-02-08T08:01:21.468Z,13.33
2023-02-08T08:03:51.816Z,14.33
2023-02-08T08:06:21.646Z,14.27
2023-02-08T08:08:49.815Z,14.27
2023-02-08T08:11:20.608Z,15.67
2023-02-08T08:13:48.218Z,14.63
2023-02-08T08:16:16.694Z,20.80
2023-02-08T08:18:44.697Z,17.43
2023-02-08T08:21:12.579Z,16.63
2023-02-08T08:23:40.118Z,13.33
2023-02-08T08:26:16.523Z,17.87
2023-02-08T08:28:46.550Z,12.43
2023-02-08T08:31:17.407Z,15.20
2023-02-08T08:33:45.442Z,16.47
2023-02-08T08:36:13.393Z,18.30
2023-02-08T08:38:41.868Z,13.40
2023-02-08T08:41:22.105Z,11.90
2023-02-08T08:43:50.646Z,13.77
2023-02-08T08:49:39.059Z,13.33
2023-02-08T08:52:07.859Z,12.93
2023-02-08T08:54:35.637Z,12.03
2023-02-08T08:57:03.577Z,11.13
2023-02-08T08:59:32.111Z,13.17
2023-02-08T09:01:59.793Z,11.50
2023-02-08T09:04:30.860Z,13.47
2023-02-08T09:06:58.588Z,12.00
2023-02-08T09:09:28.018Z,11.60
2023-02-08T09:11:55.682Z,12.10
2023-02-08T09:14:24.576Z,11.13
2023-02-08T09:16:53.481Z,10.20
2023-02-08T09:19:21.469Z,11.20
2023-02-08T09:21:49.284Z,14.60
2023-02-08T09:24:17.176Z,11.50
2023-02-08T09:26:46.419Z,11.57
2023-02-08T09:29:13.942Z,11.33
2023-02-08T09:31:42.084Z,11.27
2023-02-08T09:34:09.696Z,11.70
2023-02-08T09:36:39.961Z,11.10
2023-02-08T09:39:23.379Z,11.33
2023-02-08T09:42:09.435Z,13.17
2023-02-08T09:44:37.408Z,11.97
2023-02-08T09:47:46.157Z,11.60
2023-02-08T09:50:42.746Z,13.70
2023-02-08T09:53:30.895Z,11.97
2023-02-08T09:56:12.587Z,12.33
2023-02-08T09:58:49.472Z,11.77
2023-02-08T10:01:26.451Z,13.30
2023-02-08T10:03:59.385Z,12.37
2023-02-08T10:06:26.865Z,11.87
2023-02-08T10:08:54.413Z,12.13
2023-02-08T10:12:05.564Z,12.73
2023-02-08T10:15:03.886Z,13.20
2023-02-08T10:17:46.382Z,14.23
2023-02-08T10:20:35.679Z,12.87
2023-02-08T10:23:06.042Z,12.33
2023-02-08T10:26:35.248Z,15.00
2023-02-08T10:29:21.564Z,12.30
2023-02-08T10:32:10.412Z,14.70
2023-02-08T10:34:54.522Z,13.47
2023-02-08T10:37:30.054Z,14.07
2023-02-08T10:40:08.146Z,13.77
2023-02-08T10:42:37.919Z,13.57
2023-02-08T10:45:24.660Z,13.27
2023-02-08T10:47:57.468Z,13.37
2023-02-08T10:50:40.860Z,16.07
2023-02-08T10:53:16.651Z,13.27
2023-02-08T10:55:46.283Z,13.20
2023-02-08T10:58:18.997Z,14.23
2023-02-08T11:00:47.570Z,12.73
2023-02-08T11:03:26.121Z,15.83
2023-02-08T11:05:54.344Z,14.37
2023-02-08T11:08:23.783Z,13.03
2023-02-08T11:11:04.482Z,14.20
2023-02-08T11:13:38.371Z,17.77
2023-02-08T11:16:24.010Z,15.73
2023-02-08T11:18:56.763Z,14.13
2023-02-08T11:21:33.578Z,13.97
2023-02-08T11:24:08.353Z,12.00
2023-02-08T11:26:38.792Z,14.40
2023-02-08T11:29:14.352Z,14.37
2023-02-08T11:32:03.239Z,12.07
2023-02-08T11:34:39.143Z,11.97
2023-02-08T11:37:18.103Z,13.47
2023-02-08T11:39:57.303Z,12.30
2023-02-08T11:42:34.698Z,14.33
2023-02-08T11:45:02.839Z,17.60
2023-02-08T11:47:35.087Z,12.63
2023-02-08T11:50:05.830Z,14.87
2023-02-08T11:52:39.308Z,12.37
2023-02-08T11:55:12.816Z,16.70
2023-02-08T11:57:58.516Z,12.80
2023-02-08T12:04:35.091Z,13.33
2023-02-08T12:07:42.044Z,12.07
2023-02-08T12:10:48.053Z,14.77
2023-02-08T12:13:43.433Z,13.73
2023-02-08T12:16:43.844Z,13.23
2023-02-08T12:19:43.089Z,15.33
2023-02-08T12:22:19.177Z,15.10
2023-02-08T12:24:54.479Z,19.03
2023-02-08T12:27:44.993Z,15.23
2023-02-08T12:30:26.090Z,12.83
2023-02-08T12:33:21.692Z,12.30
2023-02-08T12:36:21.225Z,13.13
2023-02-08T12:39:35.873Z,15.00
2023-02-08T12:42:24.714Z,12.77
2023-02-08T12:45:00.667Z,14.63
2023-02-08T12:48:04.165Z,12.77
2023-02-08T12:51:02.659Z,14.50
2023-02-08T12:53:49.211Z,15.10
2023-02-08T12:56:23.449Z,13.80
2023-02-08T12:59:11.884Z,12.87
2023-02-08T13:01:51.567Z,15.10
2023-02-08T13:04:41.890Z,18.17
2023-02-08T13:07:21.238Z,11.63
2023-02-08T13:10:05.711Z,20.27
2023-02-08T13:12:40.318Z,17.83
2023-02-08T13:15:28.438Z,23.00
2023-02-08T13:18:11.059Z,15.93
2023-02-08T13:20:49.974Z,12.10
2023-02-08T13:23:28.387Z,14.37
2023-02-08T13:26:00.931Z,9.87
2023-02-08T13:28:28.964Z,15.57
2023-02-08T13:31:13.375Z,10.40
2023-02-08T13:34:01.697Z,9.87
2023-02-08T13:36:29.580Z,13.17
2023-02-08T13:38:58.918Z,10.87
2023-02-08T13:41:28.534Z,11.63
2023-02-08T13:44:04.412Z,11.77
2023-02-08T13:46:51.245Z,10.33
2023-02-08T13:49:54.572Z,9.93
2023-02-08T13:52:47.061Z,11.47
2023-02-08T13:55:35.677Z,10.40
2023-02-08T13:58:05.822Z,10.43
2023-02-08T14:00:35.551Z,10.73
2023-02-08T14:03:03.490Z,9.90
2023-02-08T14:05:58.828Z,11.23
2023-02-08T14:08:45.020Z,8.97
2023-02-08T14:11:47.353Z,9.57
2023-02-08T14:14:25.112Z,10.43
2023-02-08T14:17:16.318Z,9.23
2023-02-08T14:19:46.758Z,7.63
2023-02-08T14:22:14.119Z,8.30
2023-02-08T14:24:48.085Z,9.57
2023-02-08T14:27:26.729Z,8.63
2023-02-08T14:30:06.258Z,8.43
2023-02-08T14:32:40.428Z,8.37
2023-02-08T14:36:15.748Z,8.43
2023-02-08T14:39:51.038Z,8.20
2023-02-08T14:42:53.053Z,8.90
2023-02-08T14:45:35.767Z,9.30
2023-02-08T14:48:16.230Z,7.47
2023-02-08T14:51:10.181Z,8.73
2023-02-08T14:53:46.790Z,9.70
2023-02-08T14:56:21.898Z,10.33
2023-02-08T14:58:53.482Z,8.80
2023-02-08T15:01:36.940Z,9.93
2023-02-08T15:04:05.154Z,9.60
2023-02-08T15:06:35.537Z,8.90
2023-02-08T15:09:12.353Z,9.33
2023-02-08T15:11:40.688Z,9.27
2023-02-08T15:14:20.766Z,15.30
2023-02-08T15:16:48.686Z,9.23
2023-02-08T15:19:24.205Z,10.57
2023-02-08T15:21:52.194Z,8.93
2023-02-08T15:24:29.039Z,9.03
2023-02-08T15:26:57.872Z,8.33
2023-02-08T15:29:42.919Z,8.77
2023-02-08T15:32:17.625Z,11.17
2023-02-08T15:34:50.229Z,8.73
2023-02-08T15:37:19.141Z,8.17
2023-02-08T15:39:51.109Z,10.80
2023-02-08T15:42:21.663Z,8.80
2023-02-08T15:44:50.953Z,11.93
2023-02-08T15:47:25.694Z,9.00
2023-02-08T15:49:55.378Z,14.00
2023-02-08T15:52:25.770Z,9.20
2023-02-08T15:54:53.350Z,11.57
2023-02-08T15:57:20.732Z,9.37
2023-02-08T15:59:48.749Z,8.80
2023-02-08T16:02:34.021Z,10.27
2023-02-08T16:05:10.194Z,10.57
2023-02-08T16:07:48.721Z,9.60
2023-02-08T16:10:42.882Z,9.90
2023-02-08T16:13:19.009Z,11.57
2023-02-08T16:15:48.493Z,9.33
2023-02-08T16:18:41.500Z,9.47
2023-02-08T16:21:33.436Z,8.90
2023-02-08T16:24:25.423Z,9.10
2023-02-08T16:27:07.317Z,8.57
2023-02-08T16:29:37.713Z,10.63
2023-02-08T16:32:11.142Z,8.50
2023-02-08T16:34:41.143Z,7.63
2023-02-08T16:37:27.348Z,10.10
2023-02-08T16:40:02.285Z,8.53
2023-02-08T16:42:36.608Z,7.90
2023-02-08T16:45:14.959Z,8.60
2023-02-08T16:47:54.882Z,8.30
2023-02-08T16:50:24.557Z,8.07
2023-02-08T16:52:59.481Z,10.53
2023-02-08T16:55:30.772Z,9.93
2023-02-08T16:57:59.221Z,8.57
2023-02-08T17:00:30.011Z,11.87
2023-02-08T17:02:57.683Z,14.30
2023-02-08T17:05:32.233Z,9.07
2023-02-08T17:07:59.923Z,11.23
2023-02-08T17:10:30.819Z,31.53
2023-02-08T17:13:17.411Z,18.23
2023-02-08T17:15:48.897Z,23.70
2023-02-08T17:18:16.396Z,9.60
2023-02-08T17:20:44.054Z,9.13
2023-02-08T17:23:12.321Z,10.70
2023-02-08T17:25:39.639Z,11.63
2023-02-08T17:28:14.281Z,17.10
2023-02-08T17:30:43.563Z,11.40
2023-02-08T17:33:17.765Z,16.60
2023-02-08T17:35:54.672Z,10.37
2023-02-08T17:38:22.222Z,12.17
2023-02-08T17:40:49.825Z,13.07
2023-02-08T17:43:17.201Z,10.57
2023-02-08T17:45:45.434Z,11.63
2023-02-08T17:48:13.419Z,13.37
2023-02-08T17:50:43.392Z,11.83
2023-02-08T17:53:10.954Z,13.87
2023-02-08T17:55:42.185Z,13.80
2023-02-08T17:58:10.294Z,11.57
2023-02-08T18:00:38.459Z,10.97
2023-02-08T18:03:06.086Z,11.20
2023-02-08T18:05:33.446Z,11.77
2023-02-08T18:08:00.733Z,12.50
2023-02-08T18:10:28.324Z,10.83
2023-02-08T18:12:55.611Z,10.60
2023-02-08T18:15:24.018Z,15.30
2023-02-08T18:17:51.450Z,19.03
2023-02-08T18:20:18.869Z,14.60
2023-02-08T18:22:46.254Z,13.17
2023-02-08T18:25:14.376Z,11.03
2023-02-08T18:27:41.763Z,13.43
2023-02-08T18:30:10.741Z,12.90
2023-02-08T18:32:39.612Z,27.33
2023-02-08T18:35:08.674Z,21.17
2023-02-08T18:37:37.404Z,17.43
2023-02-08T18:40:08.280Z,17.20
2023-02-08T18:42:36.255Z,13.73
2023-02-08T18:45:05.143Z,11.33
2023-02-08T18:47:34.046Z,12.33
2023-02-08T18:50:04.528Z,10.53
2023-02-08T18:52:32.096Z,12.17
2023-02-08T18:54:59.430Z,10.20
2023-02-08T18:57:26.768Z,12.87
2023-02-08T18:59:54.259Z,15.67
2023-02-08T19:02:23.257Z,12.43
2023-02-08T19:04:50.982Z,13.57
2023-02-08T19:07:18.461Z,14.30
2023-02-08T19:09:45.821Z,12.00
2023-02-08T19:12:15.553Z,15.47
2023-02-08T19:14:43.605Z,13.93
2023-02-08T19:17:13.604Z,41.73
2023-02-08T19:19:42.419Z,18.90
2023-02-08T19:22:10.375Z,22.80
2023-02-08T19:24:37.734Z,18.63
2023-02-08T19:27:05.393Z,19.00
2023-02-08T19:29:34.437Z,14.97
2023-02-08T19:32:01.815Z,16.63
2023-02-08T19:34:29.123Z,16.27
2023-02-08T19:36:56.738Z,17.70
2023-02-08T19:39:26.460Z,14.53
2023-02-08T19:41:54.893Z,16.00
2023-02-08T19:44:22.816Z,17.77
2023-02-08T19:46:53.025Z,16.03
2023-02-08T19:49:22.152Z,17.60
2023-02-08T19:51:49.651Z,16.80
2023-02-08T19:54:18.285Z,15.97
2023-02-08T19:56:46.496Z,16.03
2023-02-08T19:59:21.352Z,24.30
2023-02-08T20:01:49.100Z,21.60
2023-02-08T20:04:16.473Z,19.10
2023-02-08T20:06:45.082Z,16.30
2023-02-08T20:09:15.081Z,16.90
2023-02-08T20:11:56.399Z,16.77
2023-02-08T20:14:25.916Z,19.27
2023-02-08T20:16:53.586Z,16.97
2023-02-08T20:19:20.988Z,20.67
2023-02-08T20:21:48.936Z,17.87
2023-02-08T20:24:16.790Z,19.20
2023-02-08T20:26:46.214Z,19.30
2023-02-08T20:29:14.492Z,20.47
2023-02-08T20:31:45.240Z,19.27
2023-02-08T20:34:14.720Z,20.87
2023-02-08T20:37:05.336Z,18.93
2023-02-08T20:39:35.701Z,25.03
2023-02-08T20:42:03.649Z,19.87
2023-02-08T20:44:31.668Z,19.47
2023-02-08T20:46:58.965Z,22.80
2023-02-08T20:49:26.785Z,22.77
2023-02-08T20:51:54.689Z,24.00
2023-02-08T20:54:24.380Z,27.50
2023-02-08T20:56:52.996Z,21.37
2023-02-08T20:59:20.893Z,27.47
2023-02-08T21:01:48.300Z,21.63
2023-02-08T21:04:17.025Z,18.83
2023-02-08T21:06:46.115Z,21.70
2023-02-08T21:09:15.357Z,25.53
2023-02-08T21:11:44.225Z,19.33
2023-02-08T21:14:18.382Z,23.77
2023-02-08T21:16:51.524Z,20.80
2023-02-08T21:19:20.652Z,24.70
2023-02-08T21:21:53.207Z,25.43
2023-02-08T21:24:20.967Z,42.23
2023-02-08T21:26:48.376Z,32.20
2023-02-08T21:29:15.908Z,26.03
2023-02-08T21:31:43.502Z,26.77
2023-02-08T21:34:11.738Z,23.73
2023-02-08T21:36:39.827Z,20.90
2023-02-08T21:39:07.265Z,20.40
2023-02-08T21:41:34.693Z,24.93
2023-02-08T21:44:04.228Z,23.17
2023-02-08T21:46:32.473Z,23.67
2023-02-08T21:49:19.079Z,19.67
2023-02-08T21:52:04.946Z,20.30
2023-02-08T21:54:44.409Z,23.47
2023-02-08T21:57:19.274Z,19.70
2023-02-08T21:59:49.133Z,25.70
2023-02-08T22:02:41.627Z,21.27
2023-02-08T22:05:09.661Z,24.63
2023-02-08T22:07:48.746Z,19.07
2023-02-08T22:10:18.852Z,22.53
2023-02-08T22:12:47.201Z,21.87
2023-02-08T22:15:16.975Z,22.97
2023-02-08T22:17:44.368Z,24.53
2023-02-08T22:20:12.888Z,25.43
2023-02-08T22:22:41.023Z,22.57
2023-02-08T22:25:09.162Z,19.20
2023-02-08T22:27:39.023Z,20.97
2023-02-08T22:30:12.747Z,21.90
2023-02-08T22:32:41.741Z,22.83
2023-02-08T22:35:09.751Z,22.00
2023-02-08T22:37:37.086Z,22.13
2023-02-08T22:40:05.900Z,23.77
2023-02-08T22:42:33.531Z,23.10
2023-02-08T22:45:01.144Z,25.17
2023-02-08T22:47:28.630Z,24.13
2023-02-08T22:49:59.036Z,23.40
2023-02-08T22:52:27.276Z,24.07
2023-02-08T22:54:56.111Z,26.70
2023-02-08T22:57:23.667Z,22.30
2023-02-08T22:59:51.204Z,28.63
2023-02-08T23:02:18.690Z,24.13
2023-02-08T23:04:46.260Z,25.60
2023-02-08T23:07:13.527Z,22.27
2023-02-08T23:09:41.372Z,23.60
2023-02-08T23:12:09.268Z,27.43
2023-02-08T23:14:37.235Z,22.97
2023-02-08T23:17:04.624Z,22.50
2023-02-08T23:19:31.925Z,22.77
2023-02-08T23:21:59.998Z,23.10
2023-02-08T23:24:27.669Z,19.63
2023-02-08T23:26:55.023Z,22.27
2023-02-08T23:29:22.377Z,19.30
2023-02-08T23:31:49.853Z,19.70
2023-02-08T23:34:17.605Z,20.30
2023-02-08T23:36:45.240Z,24.23
2023-02-08T23:39:12.999Z,19.63
2023-02-08T23:41:40.375Z,23.67
2023-02-08T23:44:07.732Z,21.87
2023-02-08T23:46:35.488Z,25.73
2023-02-08T23:49:02.853Z,24.00
2023-02-08T23:51:30.195Z,21.17
2023-02-08T23:53:57.510Z,27.70
2023-02-08T23:56:29.435Z,23.70
2023-02-08T23:58:58.265Z,20.57
